createdAt,value
2022-09-15T00:01:12.678Z,15.91
2022-09-15T00:03:40.451Z,15.88
2022-09-15T00:06:08.835Z,15.89
2022-09-15T00:08:36.757Z,15.89
2022-09-15T00:11:17.695Z,15.90
2022-09-15T00:13:45.020Z,15.91
2022-09-15T00:16:15.157Z,15.93
2022-09-15T00:18:44.067Z,15.91
2022-09-15T00:21:19.089Z,15.96
2022-09-15T00:23:47.558Z,15.98
2022-09-15T00:26:19.127Z,15.98
2022-09-15T00:28:46.715Z,15.99
2022-09-15T00:31:18.154Z,16.01
2022-09-15T00:33:53.991Z,15.94
2022-09-15T00:36:22.809Z,15.99
2022-09-15T00:38:50.174Z,15.99
2022-09-15T00:41:20.041Z,16.01
2022-09-15T00:43:57.453Z,16.02
2022-09-15T00:46:39.093Z,16.03
2022-09-15T00:49:11.861Z,15.98
2022-09-15T00:51:48.388Z,16.01
2022-09-15T00:54:29.114Z,15.98
2022-09-15T00:57:02.894Z,15.98
2022-09-15T01:02:29.459Z,15.95
2022-09-15T01:05:00.020Z,15.90
2022-09-15T01:08:19.037Z,15.89
2022-09-15T01:10:46.818Z,15.88
2022-09-15T01:13:15.171Z,15.85
2022-09-15T01:19:46.758Z,15.93
2022-09-15T01:22:40.395Z,15.95
2022-09-15T01:25:49.571Z,15.99
2022-09-15T01:28:34.807Z,15.98
2022-09-15T01:31:35.219Z,16.01
2022-09-15T01:34:18.586Z,16.04
2022-09-15T01:36:52.038Z,16.05
2022-09-15T01:39:31.955Z,16.07
2022-09-15T01:42:11.013Z,16.10
2022-09-15T01:44:48.276Z,16.09
2022-09-15T01:47:18.622Z,16.08
2022-09-15T01:49:59.342Z,16.13
2022-09-15T01:52:28.115Z,16.11
2022-09-15T01:55:11.294Z,16.14
2022-09-15T01:57:38.394Z,16.14
2022-09-15T02:00:06.149Z,16.14
2022-09-15T02:02:39.478Z,16.14
2022-09-15T02:05:35.064Z,16.12
2022-09-15T02:08:25.398Z,16.13
2022-09-15T02:11:07.830Z,16.14
2022-09-15T02:14:17.278Z,16.18
2022-09-15T02:16:50.031Z,16.16
2022-09-15T02:19:41.772Z,16.14
2022-09-15T02:22:29.310Z,16.09
2022-09-15T02:25:14.445Z,16.13
2022-09-15T02:27:47.954Z,16.11
2022-09-15T02:30:20.263Z,16.12
2022-09-15T02:33:09.498Z,16.11
2022-09-15T02:35:37.237Z,16.10
2022-09-15T02:38:09.183Z,16.09
2022-09-15T02:40:39.610Z,16.07
2022-09-15T02:43:13.866Z,16.05
2022-09-15T02:45:41.252Z,16.00
2022-09-15T02:48:11.761Z,16.00
2022-09-15T02:50:39.681Z,15.97
2022-09-15T02:53:06.700Z,15.95
2022-09-15T02:55:34.348Z,15.98
2022-09-15T02:58:01.522Z,15.93
2022-09-15T03:00:29.527Z,15.93
2022-09-15T03:02:56.816Z,15.91
2022-09-15T03:05:28.124Z,15.88
2022-09-15T03:07:56.163Z,15.89
2022-09-15T03:10:25.575Z,15.85
2022-09-15T03:12:54.894Z,15.83
2022-09-15T03:15:25.665Z,15.83
2022-09-15T03:17:53.660Z,15.83
2022-09-15T03:20:27.992Z,15.84
2022-09-15T03:22:55.310Z,15.82
2022-09-15T03:25:23.506Z,15.80
2022-09-15T03:27:50.546Z,15.79
2022-09-15T03:30:17.942Z,15.79
2022-09-15T03:32:44.884Z,15.81
2022-09-15T03:35:11.879Z,15.79
2022-09-15T03:37:38.999Z,15.79
2022-09-15T03:40:07.140Z,15.73
2022-09-15T03:42:34.156Z,15.79
2022-09-15T03:45:01.619Z,15.77
2022-09-15T03:47:28.911Z,15.78
2022-09-15T03:49:55.871Z,15.77
2022-09-15T03:52:22.838Z,15.81
2022-09-15T03:54:50.041Z,15.77
2022-09-15T03:57:17.080Z,15.83
2022-09-15T03:59:44.227Z,15.87
2022-09-15T04:02:11.325Z,15.85
2022-09-15T04:04:38.422Z,15.89
2022-09-15T04:07:05.588Z,15.94
2022-09-15T04:09:32.648Z,15.94
2022-09-15T04:11:59.713Z,15.93
2022-09-15T04:14:26.767Z,15.95
2022-09-15T04:16:53.881Z,15.96
2022-09-15T04:19:20.880Z,15.98
2022-09-15T04:21:48.224Z,15.99
2022-09-15T04:24:15.734Z,15.98
2022-09-15T04:26:42.865Z,15.99
2022-09-15T04:29:16.484Z,16.00
2022-09-15T04:31:43.946Z,16.01
2022-09-15T04:34:11.276Z,16.05
2022-09-15T04:36:38.789Z,16.05
2022-09-15T04:39:06.828Z,16.08
2022-09-15T04:41:33.924Z,16.06
2022-09-15T04:44:02.180Z,16.05
2022-09-15T04:46:29.168Z,16.05
2022-09-15T04:48:56.859Z,16.05
2022-09-15T04:51:24.458Z,16.05
2022-09-15T04:53:52.177Z,16.03
2022-09-15T04:56:25.795Z,15.99
2022-09-15T04:59:03.569Z,15.99
2022-09-15T05:01:34.369Z,15.87
2022-09-15T05:04:04.151Z,15.99
2022-09-15T05:06:31.722Z,16.00
2022-09-15T05:08:59.049Z,15.98
2022-09-15T05:11:27.187Z,15.95
2022-09-15T05:13:54.767Z,15.95
2022-09-15T05:16:24.899Z,15.95
2022-09-15T05:18:55.727Z,15.95
2022-09-15T05:21:23.738Z,15.88
2022-09-15T05:23:52.069Z,15.90
2022-09-15T05:26:25.963Z,15.84
2022-09-15T05:28:53.584Z,15.87
2022-09-15T05:31:28.042Z,15.90
2022-09-15T05:33:55.368Z,18.24
2022-09-15T05:36:25.408Z,19.22
2022-09-15T05:38:58.984Z,20.00
2022-09-15T05:41:28.266Z,20.61
2022-09-15T05:43:57.595Z,21.04
2022-09-15T05:46:29.296Z,21.37
2022-09-15T05:48:58.529Z,21.60
2022-09-15T05:51:26.028Z,21.78
2022-09-15T05:53:53.163Z,21.92
2022-09-15T05:56:20.667Z,21.99
2022-09-15T05:58:49.060Z,22.08
2022-09-15T06:01:21.369Z,22.16
2022-09-15T06:03:48.765Z,22.22
2022-09-15T06:06:16.575Z,22.25
2022-09-15T06:08:51.750Z,22.29
2022-09-15T06:11:24.385Z,22.34
2022-09-15T06:13:51.620Z,22.38
2022-09-15T06:16:22.293Z,22.40
2022-09-15T06:18:51.691Z,22.44
2022-09-15T06:21:22.320Z,22.46
2022-09-15T06:24:00.403Z,22.46
2022-09-15T06:26:28.952Z,22.47
2022-09-15T06:28:59.680Z,22.49
2022-09-15T06:31:29.884Z,22.51
2022-09-15T06:33:57.748Z,22.50
2022-09-15T06:36:28.511Z,22.55
2022-09-15T06:38:56.372Z,22.58
2022-09-15T06:41:23.762Z,22.59
2022-09-15T06:43:50.985Z,22.59
2022-09-15T06:46:21.778Z,22.59
2022-09-15T06:48:51.230Z,22.61
2022-09-15T06:51:22.450Z,22.62
2022-09-15T06:53:50.147Z,22.62
2022-09-15T06:56:22.801Z,22.64
2022-09-15T06:58:50.333Z,22.65
2022-09-15T07:01:25.330Z,22.68
2022-09-15T07:03:52.805Z,22.66
2022-09-15T07:06:20.711Z,22.65
2022-09-15T07:08:48.537Z,22.66
2022-09-15T07:11:17.370Z,22.67
2022-09-15T07:13:44.731Z,22.69
2022-09-15T07:16:14.483Z,22.69
2022-09-15T07:18:43.712Z,22.70
2022-09-15T07:21:17.438Z,22.72
2022-09-15T07:23:44.873Z,22.71
2022-09-15T07:26:19.560Z,22.72
2022-09-15T07:28:50.483Z,22.73
2022-09-15T07:31:20.819Z,22.74
2022-09-15T07:33:48.621Z,22.72
2022-09-15T07:36:16.122Z,22.75
2022-09-15T07:38:46.621Z,22.77
2022-09-15T07:41:19.113Z,22.74
2022-09-15T07:43:54.529Z,22.72
2022-09-15T07:46:24.502Z,22.73
2022-09-15T07:48:56.421Z,22.75
2022-09-15T07:51:25.532Z,22.76
2022-09-15T07:53:53.686Z,22.77
2022-09-15T07:56:22.138Z,22.75
2022-09-15T07:58:50.235Z,22.75
2022-09-15T08:01:19.211Z,22.78
2022-09-15T08:03:49.477Z,22.77
2022-09-15T08:06:22.730Z,22.78
2022-09-15T08:08:52.428Z,22.79
2022-09-15T08:11:22.362Z,22.78
2022-09-15T08:13:52.438Z,22.78
2022-09-15T08:16:23.299Z,22.79
2022-09-15T08:18:53.516Z,22.75
2022-09-15T08:21:22.233Z,22.78
2022-09-15T08:23:58.525Z,22.78
2022-09-15T08:26:27.336Z,22.77
2022-09-15T08:28:54.528Z,22.77
2022-09-15T08:31:24.287Z,22.79
2022-09-15T08:33:54.268Z,22.81
2022-09-15T08:36:21.958Z,22.78
2022-09-15T08:38:49.236Z,22.80
2022-09-15T08:41:24.009Z,22.78
2022-09-15T08:43:56.305Z,22.80
2022-09-15T08:46:37.333Z,22.79
2022-09-15T08:49:35.549Z,22.78
2022-09-15T08:52:15.615Z,22.79
2022-09-15T08:54:42.648Z,22.79
2022-09-15T08:57:19.155Z,22.79
2022-09-15T08:59:46.930Z,22.82
2022-09-15T09:02:31.611Z,22.78
2022-09-15T09:05:29.366Z,22.78
2022-09-15T09:08:29.277Z,22.83
2022-09-15T09:11:37.412Z,22.76
2022-09-15T09:14:25.187Z,22.79
2022-09-15T09:17:44.852Z,22.86
2022-09-15T09:20:57.291Z,22.86
2022-09-15T09:23:31.776Z,22.79
2022-09-15T09:26:01.980Z,22.78
2022-09-15T09:28:42.345Z,22.79
2022-09-15T09:31:20.179Z,22.83
2022-09-15T09:33:58.127Z,22.84
2022-09-15T09:36:26.512Z,22.85
2022-09-15T09:38:55.281Z,22.86
2022-09-15T09:41:35.795Z,22.87
2022-09-15T09:44:14.088Z,22.82
2022-09-15T09:46:42.363Z,22.79
2022-09-15T09:49:18.696Z,22.82
2022-09-15T09:52:00.173Z,22.87
2022-09-15T09:54:31.236Z,22.87
2022-09-15T09:57:26.995Z,22.86
2022-09-15T09:59:54.648Z,22.89
2022-09-15T10:02:28.830Z,22.85
2022-09-15T10:05:18.729Z,22.84
2022-09-15T10:07:46.451Z,22.87
2022-09-15T10:10:32.421Z,22.88
2022-09-15T10:13:03.452Z,22.90
2022-09-15T10:15:40.594Z,22.89
2022-09-15T10:18:25.472Z,22.86
2022-09-15T10:20:52.530Z,22.70
2022-09-15T10:23:21.607Z,22.78
2022-09-15T10:25:59.629Z,22.61
2022-09-15T10:28:28.468Z,22.67
2022-09-15T10:31:16.039Z,22.55
2022-09-15T10:33:47.751Z,22.61
2022-09-15T10:36:28.262Z,22.67
2022-09-15T10:39:00.429Z,22.62
2022-09-15T10:41:32.765Z,22.70
2022-09-15T10:44:42.326Z,22.79
2022-09-15T10:47:42.752Z,22.94
2022-09-15T10:50:30.965Z,22.97
2022-09-15T10:53:06.728Z,22.96
2022-09-15T10:56:08.814Z,22.95
2022-09-15T10:59:03.445Z,22.93
2022-09-15T11:01:30.270Z,22.93
2022-09-15T11:04:42.952Z,22.92
2022-09-15T11:07:34.136Z,22.92
2022-09-15T11:10:39.414Z,22.86
2022-09-15T11:13:25.615Z,22.88
2022-09-15T11:15:57.745Z,22.91
2022-09-15T11:19:04.447Z,22.78
2022-09-15T11:21:50.419Z,22.69
2022-09-15T11:24:44.436Z,22.65
2022-09-15T11:27:28.205Z,22.73
2022-09-15T11:30:20.267Z,22.77
2022-09-15T11:32:59.451Z,22.83
2022-09-15T11:35:44.418Z,22.80
2022-09-15T11:38:32.106Z,22.60
2022-09-15T11:41:41.550Z,22.72
2022-09-15T11:44:32.484Z,22.77
2022-09-15T11:47:05.193Z,22.81
2022-09-15T11:49:41.136Z,22.86
2022-09-15T11:52:42.667Z,22.83
2022-09-15T11:55:20.141Z,22.87
2022-09-15T11:58:33.954Z,22.85
2022-09-15T12:01:12.858Z,22.77
2022-09-15T12:03:50.685Z,22.85
2022-09-15T12:06:27.302Z,22.89
2022-09-15T12:09:00.849Z,22.95
2022-09-15T12:11:31.821Z,22.92
2022-09-15T12:13:59.986Z,22.86
2022-09-15T12:16:28.172Z,22.94
2022-09-15T12:19:06.978Z,22.92
2022-09-15T12:21:39.437Z,22.83
2022-09-15T12:24:38.095Z,22.80
2022-09-15T12:27:05.339Z,22.83
2022-09-15T12:29:42.109Z,22.89
2022-09-15T12:32:25.351Z,22.94
2022-09-15T12:34:56.345Z,22.99
2022-09-15T12:37:24.578Z,22.96
2022-09-15T12:39:53.955Z,22.90
2022-09-15T12:42:33.267Z,22.78
2022-09-15T12:45:06.155Z,22.51
2022-09-15T12:47:41.458Z,22.58
2022-09-15T12:50:17.360Z,22.64
2022-09-15T12:52:53.468Z,22.81
2022-09-15T12:55:27.226Z,22.85
2022-09-15T12:58:09.727Z,22.89
2022-09-15T13:01:06.707Z,22.87
2022-09-15T13:06:28.939Z,22.80
2022-09-15T13:09:01.783Z,22.73
2022-09-15T13:11:37.009Z,22.80
2022-09-15T13:14:04.199Z,22.82
2022-09-15T13:16:52.854Z,22.74
2022-09-15T13:19:41.314Z,22.74
2022-09-15T13:22:51.748Z,22.81
2022-09-15T13:25:30.445Z,22.85
2022-09-15T13:28:03.487Z,22.73
2022-09-15T13:30:39.736Z,22.73
2022-09-15T13:40:14.978Z,23.01
2022-09-15T13:43:21.490Z,22.98
2022-09-15T13:46:19.799Z,22.98
2022-09-15T13:49:01.848Z,22.94
2022-09-15T13:51:31.549Z,22.88
2022-09-15T13:54:19.163Z,22.95
2022-09-15T13:56:47.513Z,23.00
2022-09-15T13:59:28.471Z,22.97
2022-09-15T14:01:56.966Z,23.01
2022-09-15T14:04:32.078Z,22.97
2022-09-15T14:07:01.844Z,22.88
2022-09-15T14:09:41.259Z,23.00
2022-09-15T14:12:13.475Z,22.93
2022-09-15T14:14:53.821Z,22.98
2022-09-15T14:17:26.481Z,23.02
2022-09-15T14:19:59.774Z,22.94
2022-09-15T14:22:34.797Z,22.94
2022-09-15T14:25:19.208Z,23.03
2022-09-15T14:27:50.019Z,23.00
2022-09-15T14:30:32.066Z,22.92
2022-09-15T14:33:02.169Z,22.94
2022-09-15T14:35:36.383Z,23.00
2022-09-15T14:38:03.707Z,22.97
2022-09-15T14:40:38.060Z,22.90
2022-09-15T14:43:42.023Z,22.92
2022-09-15T14:46:15.469Z,22.98
2022-09-15T14:48:42.469Z,22.85
2022-09-15T14:51:25.955Z,22.84
2022-09-15T14:53:58.623Z,22.87
2022-09-15T14:56:32.960Z,22.92
2022-09-15T14:59:15.239Z,22.90
2022-09-15T15:01:57.181Z,22.89
2022-09-15T15:04:42.285Z,21.22
2022-09-15T15:07:16.155Z,21.07
2022-09-15T15:09:57.845Z,20.86
2022-09-15T15:12:41.972Z,20.72
2022-09-15T15:15:13.509Z,20.48
2022-09-15T15:17:49.329Z,20.67
2022-09-15T15:20:27.121Z,20.64
2022-09-15T15:23:19.945Z,20.67
2022-09-15T15:25:47.139Z,20.60
2022-09-15T15:28:34.579Z,20.48
2022-09-15T15:31:23.066Z,20.59
2022-09-15T15:33:59.658Z,20.63
2022-09-15T15:36:29.406Z,20.71
2022-09-15T15:39:04.367Z,20.75
2022-09-15T15:41:40.999Z,20.55
2022-09-15T15:44:13.967Z,20.57
2022-09-15T15:47:01.487Z,20.81
2022-09-15T15:49:32.766Z,20.86
2022-09-15T15:52:00.987Z,20.82
2022-09-15T15:54:28.563Z,20.72
2022-09-15T15:57:04.526Z,20.70
2022-09-15T15:59:32.169Z,20.72
2022-09-15T16:01:59.283Z,20.71
2022-09-15T16:04:26.397Z,20.80
2022-09-15T16:06:53.528Z,20.77
2022-09-15T16:09:20.915Z,20.65
2022-09-15T16:11:48.065Z,20.62
2022-09-15T16:14:15.205Z,20.57
2022-09-15T16:16:42.336Z,20.55
2022-09-15T16:19:09.769Z,20.55
2022-09-15T16:21:42.449Z,20.51
2022-09-15T16:24:15.273Z,20.50
2022-09-15T16:26:43.276Z,20.48
2022-09-15T16:29:11.196Z,20.36
2022-09-15T16:31:38.914Z,20.43
2022-09-15T16:34:06.202Z,20.36
2022-09-15T16:36:36.411Z,20.36
2022-09-15T16:39:03.891Z,20.32
2022-09-15T16:41:31.797Z,20.28
2022-09-15T16:44:02.592Z,20.21
2022-09-15T16:46:29.839Z,20.17
2022-09-15T16:48:57.203Z,20.15
2022-09-15T16:51:29.954Z,20.17
2022-09-15T16:53:58.736Z,20.11
2022-09-15T16:56:27.015Z,19.99
2022-09-15T16:58:59.828Z,19.97
2022-09-15T17:01:27.506Z,19.94
2022-09-15T17:03:54.620Z,19.94
2022-09-15T17:06:22.310Z,19.90
2022-09-15T17:08:49.766Z,19.86
2022-09-15T17:11:19.741Z,19.82
2022-09-15T17:13:47.682Z,19.83
2022-09-15T17:16:19.506Z,19.83
2022-09-15T17:18:47.050Z,19.78
2022-09-15T17:21:18.062Z,19.77
2022-09-15T17:23:48.235Z,19.69
2022-09-15T17:26:24.684Z,19.71
2022-09-15T17:28:55.512Z,19.66
2022-09-15T17:31:24.915Z,19.66
2022-09-15T17:33:53.579Z,19.64
2022-09-15T17:36:20.770Z,19.54
2022-09-15T17:38:50.829Z,19.52
2022-09-15T17:41:20.791Z,19.53
2022-09-15T17:43:47.916Z,19.50
2022-09-15T17:46:15.765Z,19.49
2022-09-15T17:48:42.966Z,19.48
2022-09-15T17:51:17.520Z,19.44
2022-09-15T17:53:46.835Z,19.34
2022-09-15T17:56:14.109Z,19.32
2022-09-15T17:58:41.874Z,19.29
2022-09-15T18:01:14.690Z,19.24
2022-09-15T18:03:45.125Z,19.21
2022-09-15T18:06:12.998Z,19.19
2022-09-15T18:08:40.251Z,19.15
2022-09-15T18:11:07.430Z,19.10
2022-09-15T18:13:34.419Z,19.07
2022-09-15T18:16:06.812Z,19.04
2022-09-15T18:18:34.216Z,18.98
2022-09-15T18:21:01.463Z,19.00
2022-09-15T18:23:29.663Z,18.94
2022-09-15T18:25:57.630Z,18.92
2022-09-15T18:28:24.709Z,18.88
2022-09-15T18:30:52.214Z,18.86
2022-09-15T18:33:25.412Z,18.80
2022-09-15T18:35:56.462Z,18.78
2022-09-15T18:38:24.169Z,18.72
2022-09-15T18:40:55.413Z,18.71
2022-09-15T18:43:26.371Z,18.67
2022-09-15T18:46:00.752Z,18.63
2022-09-15T18:48:28.832Z,18.57
2022-09-15T18:50:56.073Z,18.53
2022-09-15T18:53:23.443Z,18.50
2022-09-15T18:55:50.653Z,18.45
2022-09-15T18:58:19.241Z,18.43
2022-09-15T19:00:46.575Z,18.40
2022-09-15T19:03:14.353Z,18.36
2022-09-15T19:05:42.016Z,18.34
2022-09-15T19:08:09.376Z,18.34
2022-09-15T19:10:38.332Z,18.32
2022-09-15T19:13:05.627Z,18.24
2022-09-15T19:15:34.677Z,18.22
2022-09-15T19:18:02.134Z,18.17
2022-09-15T19:20:29.420Z,18.11
2022-09-15T19:22:58.149Z,18.09
2022-09-15T19:25:25.393Z,18.07
2022-09-15T19:27:52.432Z,18.02
2022-09-15T19:30:19.529Z,17.99
2022-09-15T19:32:46.697Z,17.98
2022-09-15T19:35:14.150Z,17.94
2022-09-15T19:37:43.240Z,17.92
2022-09-15T19:40:14.835Z,17.89
2022-09-15T19:42:44.018Z,17.87
2022-09-15T19:45:12.707Z,17.85
2022-09-15T19:47:40.699Z,17.81
2022-09-15T19:50:11.214Z,17.79
2022-09-15T19:52:38.505Z,17.75
2022-09-15T19:55:08.122Z,17.73
2022-09-15T19:57:38.691Z,17.75
2022-09-15T20:00:07.787Z,17.72
2022-09-15T20:02:34.948Z,17.67
2022-09-15T20:07:48.072Z,17.61
2022-09-15T20:10:16.442Z,17.59
2022-09-15T20:12:43.575Z,17.57
2022-09-15T20:15:10.940Z,17.55
2022-09-15T20:17:41.708Z,17.54
2022-09-15T20:20:11.542Z,17.49
2022-09-15T20:22:38.677Z,17.42
2022-09-15T20:25:06.035Z,17.34
2022-09-15T20:27:33.205Z,17.27
2022-09-15T20:30:00.345Z,17.20
2022-09-15T20:32:29.316Z,17.12
2022-09-15T20:34:56.360Z,17.11
2022-09-15T20:37:23.434Z,17.11
2022-09-15T20:39:51.485Z,17.06
2022-09-15T20:42:18.837Z,17.05
2022-09-15T20:44:45.879Z,17.02
2022-09-15T20:47:12.973Z,16.98
2022-09-15T20:49:40.039Z,16.90
2022-09-15T20:52:07.054Z,16.87
2022-09-15T20:54:34.507Z,16.80
2022-09-15T20:57:01.710Z,16.76
2022-09-15T20:59:28.708Z,16.72
2022-09-15T21:01:55.837Z,16.64
2022-09-15T21:04:22.898Z,16.56
2022-09-15T21:06:50.228Z,16.53
2022-09-15T21:09:17.238Z,16.42
2022-09-15T21:11:44.337Z,16.39
2022-09-15T21:14:15.323Z,16.37
2022-09-15T21:16:42.451Z,16.31
2022-09-15T21:19:09.935Z,16.23
2022-09-15T21:21:37.000Z,16.20
2022-09-15T21:24:07.715Z,16.16
2022-09-15T21:26:57.374Z,16.07
2022-09-15T21:29:24.586Z,16.02
2022-09-15T21:31:51.802Z,15.95
2022-09-15T21:34:20.232Z,15.95
2022-09-15T21:36:47.354Z,15.93
2022-09-15T21:39:14.335Z,15.90
2022-09-15T21:41:41.560Z,15.92
2022-09-15T21:44:09.816Z,15.88
2022-09-15T21:46:36.814Z,15.84
2022-09-15T21:49:04.068Z,15.82
2022-09-15T21:51:31.222Z,15.72
2022-09-15T21:53:59.350Z,15.74
2022-09-15T21:56:28.459Z,15.72
2022-09-15T21:58:55.762Z,15.68
2022-09-15T22:01:26.733Z,15.67
2022-09-15T22:03:57.360Z,15.63
2022-09-15T22:06:30.159Z,15.65
2022-09-15T22:08:58.198Z,15.61
2022-09-15T22:11:25.485Z,15.62
2022-09-15T22:13:52.713Z,15.59
2022-09-15T22:16:22.398Z,15.53
2022-09-15T22:18:50.754Z,15.46
2022-09-15T22:21:20.607Z,15.46
2022-09-15T22:23:49.392Z,15.46
2022-09-15T22:26:33.317Z,15.44
2022-09-15T22:29:00.649Z,15.45
2022-09-15T22:31:29.079Z,15.39
2022-09-15T22:33:56.700Z,15.39
2022-09-15T22:36:29.196Z,15.35
2022-09-15T22:39:05.012Z,15.34
2022-09-15T22:41:36.720Z,15.39
2022-09-15T22:44:05.266Z,15.37
2022-09-15T22:46:32.735Z,15.38
2022-09-15T22:49:00.081Z,15.35
2022-09-15T22:51:27.101Z,15.34
2022-09-15T22:53:56.726Z,15.35
2022-09-15T22:56:26.032Z,15.36
2022-09-15T22:58:53.344Z,15.37
2022-09-15T23:01:24.942Z,15.39
2022-09-15T23:03:55.733Z,15.43
2022-09-15T23:06:24.685Z,15.44
2022-09-15T23:08:57.514Z,15.45
2022-09-15T23:11:26.964Z,15.50
2022-09-15T23:13:55.478Z,15.50
2022-09-15T23:16:24.647Z,15.51
2022-09-15T23:18:52.932Z,15.53
2022-09-15T23:21:20.770Z,15.50
2022-09-15T23:23:49.260Z,15.50
2022-09-15T23:26:23.977Z,15.54
2022-09-15T23:28:51.139Z,15.53
2022-09-15T23:31:19.445Z,15.54
2022-09-15T23:33:47.447Z,15.54
2022-09-15T23:36:19.640Z,15.53
2022-09-15T23:38:48.282Z,15.52
2022-09-15T23:41:17.315Z,15.53
2022-09-15T23:43:45.402Z,15.53
2022-09-15T23:46:12.996Z,15.51
2022-09-15T23:48:40.052Z,15.53
2022-09-15T23:51:07.036Z,15.53
2022-09-15T23:53:35.171Z,15.46
2022-09-15T23:56:02.779Z,15.44
2022-09-15T23:58:32.549Z,15.44
